createdAt,value
2017-08-12T00:00:39.472Z,0
2017-08-12T00:01:40.080Z,0
2017-08-12T00:02:39.741Z,0
2017-08-12T00:03:39.782Z,0
2017-08-12T00:04:39.421Z,0
2017-08-12T00:05:39.765Z,0
2017-08-12T00:06:39.985Z,0
2017-08-12T00:07:39.371Z,0
2017-08-12T00:08:39.341Z,0
2017-08-12T00:09:39.455Z,0
2017-08-12T00:10:39.308Z,0
2017-08-12T00:11:39.911Z,0
2017-08-12T00:12:39.581Z,0
2017-08-12T00:13:39.641Z,0
2017-08-12T00:14:39.563Z,0
2017-08-12T00:15:39.870Z,0
2017-08-12T00:16:39.828Z,0
2017-08-12T00:17:39.283Z,0
2017-08-12T00:18:39.502Z,0
2017-08-12T00:19:39.158Z,0
2017-08-12T00:20:39.498Z,0
2017-08-12T00:21:39.421Z,0
2017-08-12T00:22:39.112Z,0
2017-08-12T00:23:39.081Z,0
2017-08-12T00:24:39.488Z,0
2017-08-12T00:25:39.270Z,0
2017-08-12T00:26:39.349Z,0
2017-08-12T00:27:39.370Z,0
2017-08-12T00:28:39.413Z,0
2017-08-12T00:29:39.043Z,0
2017-08-12T00:30:39.349Z,0
2017-08-12T00:31:39.661Z,0
2017-08-12T00:32:39.548Z,0
2017-08-12T00:33:39.321Z,0
2017-08-12T00:34:39.510Z,0
2017-08-12T00:35:39.241Z,0
2017-08-12T00:36:39.182Z,0
2017-08-12T00:37:39.822Z,0
2017-08-12T00:38:39.433Z,0
2017-08-12T00:39:38.812Z,0
2017-08-12T00:40:39.411Z,0
2017-08-12T00:41:38.771Z,0
2017-08-12T00:42:39.072Z,0
2017-08-12T00:43:39.151Z,0
2017-08-12T00:44:39.079Z,0
2017-08-12T00:45:39.320Z,0
2017-08-12T00:46:38.494Z,0
2017-08-12T00:47:39.226Z,0
2017-08-12T00:48:38.970Z,0
2017-08-12T00:49:38.951Z,0
2017-08-12T00:50:38.973Z,0
2017-08-12T00:51:38.631Z,0
2017-08-12T00:52:38.592Z,0
2017-08-12T00:53:38.572Z,0
2017-08-12T00:54:38.880Z,0
2017-08-12T00:55:39.072Z,0
2017-08-12T00:56:38.849Z,0
2017-08-12T00:57:38.844Z,0
2017-08-12T00:58:38.822Z,0
2017-08-12T00:59:38.800Z,0
2017-08-12T01:00:38.771Z,0
2017-08-12T01:01:38.756Z,0
2017-08-12T01:02:38.434Z,0
2017-08-12T01:03:38.731Z,0
2017-08-12T01:04:39.046Z,0
2017-08-12T01:05:38.679Z,0
2017-08-12T01:06:38.682Z,0
2017-08-12T01:07:38.360Z,0
2017-08-12T01:08:38.651Z,0
2017-08-12T01:09:38.646Z,0
2017-08-12T01:10:38.602Z,0
2017-08-12T01:11:38.582Z,0
2017-08-12T01:12:38.567Z,0
2017-08-12T01:13:38.551Z,0
2017-08-12T01:14:38.531Z,0
2017-08-12T01:15:38.284Z,0
2017-08-12T01:16:38.504Z,0
2017-08-12T01:17:38.491Z,0
2017-08-12T01:18:38.771Z,0
2017-08-12T01:19:38.452Z,0
2017-08-12T01:20:38.436Z,0
2017-08-12T01:21:38.421Z,0
2017-08-12T01:22:38.405Z,0
2017-08-12T01:23:38.683Z,0
2017-08-12T01:24:38.372Z,0
2017-08-12T01:25:38.643Z,0
2017-08-12T01:26:38.357Z,0
2017-08-12T01:27:38.311Z,0
2017-08-12T01:28:38.617Z,0
2017-08-12T01:29:38.601Z,0
2017-08-12T01:30:38.567Z,0
2017-08-12T01:31:38.541Z,0
2017-08-12T01:32:38.551Z,0
2017-08-12T01:33:38.522Z,0
2017-08-12T01:34:38.542Z,0
2017-08-12T01:35:38.491Z,0
2017-08-12T01:36:37.857Z,0
2017-08-12T01:37:38.462Z,0
2017-08-12T01:38:38.447Z,0
2017-08-12T01:39:38.128Z,0
2017-08-12T01:40:38.452Z,0
2017-08-12T01:41:38.387Z,0
2017-08-12T01:42:38.372Z,0
2017-08-12T01:43:38.362Z,0
2017-08-12T01:44:38.040Z,0
2017-08-12T01:45:38.341Z,0
2017-08-12T01:46:38.291Z,0
2017-08-12T01:47:38.288Z,0
2017-08-12T01:48:38.282Z,0
2017-08-12T01:49:37.968Z,0
2017-08-12T01:50:37.922Z,0
2017-08-12T01:51:37.901Z,0
2017-08-12T01:52:37.887Z,0
2017-08-12T01:53:37.861Z,0
2017-08-12T01:54:37.876Z,0
2017-08-12T01:55:37.523Z,0
2017-08-12T01:56:37.862Z,0
2017-08-12T01:57:37.493Z,0
2017-08-12T01:58:38.092Z,0
2017-08-12T01:59:37.771Z,0
2017-08-12T02:00:37.757Z,0
2017-08-12T02:01:37.751Z,0
2017-08-12T02:02:37.716Z,0
2017-08-12T02:03:38.006Z,0
2017-08-12T02:04:37.679Z,0
2017-08-12T02:05:37.964Z,0
2017-08-12T02:06:37.951Z,0
2017-08-12T02:07:37.941Z,0
2017-08-12T02:08:37.303Z,0
2017-08-12T02:09:37.901Z,0
2017-08-12T02:10:37.687Z,0
2017-08-12T02:11:37.259Z,0
2017-08-12T02:12:37.861Z,0
2017-08-12T02:13:36.911Z,0
2017-08-12T02:14:37.511Z,0
2017-08-12T02:15:37.493Z,0
2017-08-12T02:16:37.509Z,0
2017-08-12T02:17:37.769Z,0
2017-08-12T02:18:36.871Z,0
2017-08-12T02:19:36.830Z,0
2017-08-12T02:20:37.498Z,0
2017-08-12T02:21:37.391Z,0
2017-08-12T02:22:36.824Z,0
2017-08-12T02:23:37.670Z,0
2017-08-12T02:24:37.359Z,0
2017-08-12T02:25:37.339Z,0
2017-08-12T02:26:37.620Z,0
2017-08-12T02:27:37.290Z,0
2017-08-12T02:28:37.275Z,0
2017-08-12T02:29:37.260Z,0
2017-08-12T02:30:37.043Z,0
2017-08-12T02:31:37.532Z,0
2017-08-12T02:32:36.899Z,0
2017-08-12T02:33:36.890Z,0
2017-08-12T02:34:37.479Z,0
2017-08-12T02:35:37.162Z,0
2017-08-12T02:36:37.145Z,0
2017-08-12T02:37:37.138Z,0
2017-08-12T02:38:37.396Z,0
2017-08-12T02:39:37.131Z,0
2017-08-12T02:40:37.082Z,0
2017-08-12T02:41:37.353Z,0
2017-08-12T02:42:37.051Z,0
2017-08-12T02:43:37.365Z,0
2017-08-12T02:44:37.052Z,0
2017-08-12T02:45:36.682Z,0
2017-08-12T02:46:36.650Z,0
2017-08-12T02:47:37.251Z,0
2017-08-12T02:48:37.233Z,0
2017-08-12T02:49:37.230Z,0
2017-08-12T02:50:36.911Z,0
2017-08-12T02:51:37.188Z,0
2017-08-12T02:52:37.180Z,0
2017-08-12T02:53:36.840Z,0
2017-08-12T02:54:36.830Z,0
2017-08-12T02:55:36.501Z,0
2017-08-12T02:56:37.080Z,0
2017-08-12T02:57:36.772Z,0
2017-08-12T02:58:36.151Z,0
2017-08-12T02:59:36.744Z,0
2017-08-12T03:00:36.421Z,0
2017-08-12T03:01:36.390Z,0
2017-08-12T03:02:36.382Z,0
2017-08-12T03:03:37.024Z,0
2017-08-12T03:04:36.955Z,0
2017-08-12T03:05:36.630Z,0
2017-08-12T03:06:36.311Z,0
2017-08-12T03:07:36.289Z,0
2017-08-12T03:08:36.280Z,0
2017-08-12T03:09:36.590Z,0
2017-08-12T03:10:36.551Z,0
2017-08-12T03:11:36.219Z,0
2017-08-12T03:12:36.819Z,0
2017-08-12T03:13:36.190Z,0
2017-08-12T03:14:36.190Z,0
2017-08-12T03:15:36.766Z,0
2017-08-12T03:16:36.441Z,0
2017-08-12T03:17:36.429Z,0
2017-08-12T03:18:36.729Z,0
2017-08-12T03:19:36.080Z,0
2017-08-12T03:20:36.690Z,0
2017-08-12T03:21:36.061Z,0
2017-08-12T03:22:36.339Z,0
2017-08-12T03:23:36.013Z,0
2017-08-12T03:24:36.311Z,0
2017-08-12T03:25:36.612Z,0
2017-08-12T03:26:36.580Z,0
2017-08-12T03:27:35.951Z,0
2017-08-12T03:28:36.251Z,0
2017-08-12T03:29:36.222Z,0
2017-08-12T03:30:36.605Z,0
2017-08-12T03:31:36.180Z,0
2017-08-12T03:32:36.170Z,0
2017-08-12T03:33:35.863Z,0
2017-08-12T03:34:36.551Z,0
2017-08-12T03:35:36.138Z,0
2017-08-12T03:36:36.419Z,0
2017-08-12T03:37:36.092Z,0
2017-08-12T03:38:36.070Z,0
2017-08-12T03:39:36.054Z,0
2017-08-12T03:40:36.353Z,0
2017-08-12T03:41:36.004Z,0
2017-08-12T03:42:36.003Z,0
2017-08-12T03:43:35.984Z,0
2017-08-12T03:44:36.370Z,0
2017-08-12T03:45:35.939Z,0
2017-08-12T03:46:36.032Z,4
2017-08-12T03:47:35.920Z,4
2017-08-12T03:48:35.930Z,4
2017-08-12T03:49:36.190Z,0
2017-08-12T03:50:35.944Z,0
2017-08-12T03:51:35.919Z,4
2017-08-12T03:52:36.220Z,4
2017-08-12T03:53:36.154Z,4
2017-08-12T03:54:36.120Z,4
2017-08-12T03:55:36.150Z,8
2017-08-12T03:56:36.072Z,8
2017-08-12T03:57:36.110Z,8
2017-08-12T03:58:36.030Z,8
2017-08-12T03:59:35.411Z,12
2017-08-12T04:00:35.471Z,12
2017-08-12T04:01:35.982Z,12
2017-08-12T04:02:35.981Z,16
2017-08-12T04:03:35.955Z,20
2017-08-12T04:04:35.403Z,24
2017-08-12T04:05:35.911Z,24
2017-08-12T04:06:35.627Z,24
2017-08-12T04:07:35.589Z,28
2017-08-12T04:08:35.949Z,24
2017-08-12T04:09:35.829Z,32
2017-08-12T04:10:35.560Z,32
2017-08-12T04:11:35.611Z,40
2017-08-12T04:12:35.920Z,36
2017-08-12T04:13:35.567Z,40
2017-08-12T04:14:35.502Z,40
2017-08-12T04:15:35.527Z,44
2017-08-12T04:16:35.501Z,44
2017-08-12T04:17:35.421Z,40
2017-08-12T04:18:35.382Z,44
2017-08-12T04:19:35.380Z,44
2017-08-12T04:20:34.710Z,44
2017-08-12T04:21:35.624Z,48
2017-08-12T04:22:35.298Z,56
2017-08-12T04:23:35.664Z,64
2017-08-12T04:24:35.578Z,68
2017-08-12T04:25:34.959Z,76
2017-08-12T04:26:35.591Z,84
2017-08-12T04:27:35.564Z,92
2017-08-12T04:28:35.203Z,96
2017-08-12T04:29:35.020Z,104
2017-08-12T04:30:35.201Z,112
2017-08-12T04:31:35.550Z,128
2017-08-12T04:32:35.115Z,140
2017-08-12T04:33:35.150Z,156
2017-08-12T04:34:34.791Z,176
2017-08-12T04:35:34.760Z,196
2017-08-12T04:36:35.061Z,216
2017-08-12T04:37:35.030Z,236
2017-08-12T04:38:35.319Z,260
2017-08-12T04:39:35.001Z,280
2017-08-12T04:40:35.293Z,300
2017-08-12T04:41:34.672Z,324
2017-08-12T04:42:34.642Z,356
2017-08-12T04:43:35.280Z,372
2017-08-12T04:44:34.922Z,392
2017-08-12T04:45:34.593Z,412
2017-08-12T04:46:35.224Z,428
2017-08-12T04:47:34.860Z,448
2017-08-12T04:48:35.201Z,444
2017-08-12T04:49:35.193Z,428
2017-08-12T04:50:34.811Z,412
2017-08-12T04:51:34.789Z,400
2017-08-12T04:52:34.777Z,392
2017-08-12T04:53:34.751Z,376
2017-08-12T04:54:34.744Z,352
2017-08-12T04:55:34.731Z,332
2017-08-12T04:56:34.401Z,348
2017-08-12T04:57:34.371Z,380
2017-08-12T04:58:34.992Z,428
2017-08-12T04:59:35.019Z,488
2017-08-12T05:00:34.628Z,584
2017-08-12T05:01:34.919Z,636
2017-08-12T05:02:34.912Z,656
2017-08-12T05:03:34.582Z,664
2017-08-12T05:04:34.562Z,668
2017-08-12T05:05:34.904Z,760
2017-08-12T05:06:34.534Z,776
2017-08-12T05:07:34.216Z,820
2017-08-12T05:08:34.181Z,916
2017-08-12T05:09:34.875Z,940
2017-08-12T05:10:34.461Z,844
2017-08-12T05:11:34.442Z,840
2017-08-12T05:12:34.742Z,916
2017-08-12T05:13:34.724Z,852
2017-08-12T05:14:34.409Z,832
2017-08-12T05:15:34.672Z,732
2017-08-12T05:16:34.668Z,596
2017-08-12T05:17:34.032Z,544
2017-08-12T05:18:34.332Z,564
2017-08-12T05:19:34.291Z,616
2017-08-12T05:20:33.992Z,696
2017-08-12T05:21:33.965Z,700
2017-08-12T05:22:34.566Z,704
2017-08-12T05:23:34.242Z,704
2017-08-12T05:24:33.944Z,720
2017-08-12T05:25:34.530Z,716
2017-08-12T05:26:34.181Z,716
2017-08-12T05:27:34.162Z,656
2017-08-12T05:28:34.158Z,604
2017-08-12T05:29:34.141Z,556
2017-08-12T05:30:34.433Z,528
2017-08-12T05:31:34.088Z,512
2017-08-12T05:32:33.773Z,480
2017-08-12T05:33:33.873Z,480
2017-08-12T05:34:34.046Z,468
2017-08-12T05:35:34.021Z,476
2017-08-12T05:36:34.002Z,496
2017-08-12T05:37:34.013Z,528
2017-08-12T05:38:33.663Z,548
2017-08-12T05:39:33.982Z,548
2017-08-12T05:40:33.973Z,596
2017-08-12T05:41:34.241Z,596
2017-08-12T05:42:33.902Z,604
2017-08-12T05:43:33.611Z,612
2017-08-12T05:44:33.876Z,672
2017-08-12T05:45:33.851Z,712
2017-08-12T05:46:33.842Z,656
2017-08-12T05:47:33.833Z,592
2017-08-12T05:48:33.802Z,568
2017-08-12T05:49:33.833Z,584
2017-08-12T05:50:33.962Z,580
2017-08-12T05:51:33.749Z,524
2017-08-12T05:52:34.052Z,480
2017-08-12T05:53:34.032Z,472
2017-08-12T05:54:34.005Z,484
2017-08-12T05:55:33.865Z,524
2017-08-12T05:56:33.982Z,600
2017-08-12T05:57:33.474Z,660
2017-08-12T05:58:33.458Z,712
2017-08-12T05:59:33.657Z,724
2017-08-12T06:00:33.656Z,668
2017-08-12T06:01:33.585Z,676
2017-08-12T06:02:33.575Z,720
2017-08-12T06:03:33.543Z,712
2017-08-12T06:04:33.544Z,696
2017-08-12T06:05:33.819Z,736
2017-08-12T06:06:33.813Z,828
2017-08-12T06:07:33.485Z,956
2017-08-12T06:08:33.772Z,1012
2017-08-12T06:09:33.457Z,960
2017-08-12T06:10:33.772Z,1000
2017-08-12T06:11:33.718Z,1000
2017-08-12T06:12:33.704Z,1028
2017-08-12T06:13:33.688Z,920
2017-08-12T06:14:33.052Z,900
2017-08-12T06:15:33.638Z,828
2017-08-12T06:16:33.643Z,804
2017-08-12T06:17:33.021Z,768
2017-08-12T06:18:32.983Z,696
2017-08-12T06:19:33.585Z,696
2017-08-12T06:20:33.574Z,624
2017-08-12T06:21:33.568Z,572
2017-08-12T06:22:33.222Z,568
2017-08-12T06:23:33.517Z,548
2017-08-12T06:24:33.494Z,540
2017-08-12T06:25:33.498Z,492
2017-08-12T06:26:33.451Z,468
2017-08-12T06:27:33.150Z,444
2017-08-12T06:28:33.112Z,420
2017-08-12T06:29:33.148Z,468
2017-08-12T06:30:33.083Z,568
2017-08-12T06:31:33.075Z,628
2017-08-12T06:32:32.809Z,708
2017-08-12T06:33:33.026Z,732
2017-08-12T06:34:33.009Z,728
2017-08-12T06:35:33.295Z,696
2017-08-12T06:36:32.962Z,644
2017-08-12T06:37:33.262Z,664
2017-08-12T06:38:32.942Z,704
2017-08-12T06:39:33.220Z,792
2017-08-12T06:40:33.212Z,884
2017-08-12T06:41:33.187Z,928
2017-08-12T06:42:33.191Z,904
2017-08-12T06:43:33.173Z,888
2017-08-12T06:44:33.171Z,848
2017-08-12T06:45:33.133Z,824
2017-08-12T06:46:33.113Z,824
2017-08-12T06:47:33.080Z,800
2017-08-12T06:48:32.772Z,800
2017-08-12T06:49:32.828Z,844
2017-08-12T06:50:32.120Z,856
2017-08-12T06:51:33.023Z,936
2017-08-12T06:52:33.010Z,1048
2017-08-12T06:53:32.982Z,1168
2017-08-12T06:54:32.042Z,1164
2017-08-12T06:55:32.963Z,1196
2017-08-12T06:56:32.621Z,1156
2017-08-12T06:57:32.928Z,1172
2017-08-12T06:58:32.904Z,1152
2017-08-12T06:59:32.572Z,1036
2017-08-12T07:00:32.568Z,1120
2017-08-12T07:01:32.232Z,1184
2017-08-12T07:02:32.831Z,1172
2017-08-12T07:03:32.812Z,1240
2017-08-12T07:04:32.488Z,1196
2017-08-12T07:05:32.494Z,1204
2017-08-12T07:06:32.459Z,1072
2017-08-12T07:07:32.733Z,960
2017-08-12T07:08:32.716Z,960
2017-08-12T07:09:32.391Z,1076
2017-08-12T07:10:32.074Z,1108
2017-08-12T07:11:32.353Z,1056
2017-08-12T07:12:32.653Z,1104
2017-08-12T07:13:32.639Z,1048
2017-08-12T07:14:32.331Z,1016
2017-08-12T07:15:32.305Z,896
2017-08-12T07:16:32.577Z,912
2017-08-12T07:17:32.002Z,924
2017-08-12T07:18:31.942Z,988
2017-08-12T07:19:32.210Z,900
2017-08-12T07:20:31.917Z,1008
2017-08-12T07:21:32.510Z,1156
2017-08-12T07:22:31.867Z,1040
2017-08-12T07:23:32.162Z,948
2017-08-12T07:24:32.130Z,792
2017-08-12T07:25:32.441Z,724
2017-08-12T07:26:31.804Z,736
2017-08-12T07:27:32.120Z,776
2017-08-12T07:28:32.382Z,808
2017-08-12T07:29:32.072Z,700
2017-08-12T07:30:32.456Z,632
2017-08-12T07:31:32.163Z,588
2017-08-12T07:32:32.374Z,536
2017-08-12T07:33:31.985Z,676
2017-08-12T07:34:32.040Z,764
2017-08-12T07:35:31.974Z,808
2017-08-12T07:36:31.946Z,868
2017-08-12T07:37:32.350Z,828
2017-08-12T07:38:32.333Z,768
2017-08-12T07:39:31.573Z,884
2017-08-12T07:40:31.661Z,952
2017-08-12T07:41:31.684Z,956
2017-08-12T07:42:32.131Z,1084
2017-08-12T07:43:32.225Z,1020
2017-08-12T07:44:31.504Z,1124
2017-08-12T07:45:31.775Z,1088
2017-08-12T07:46:32.062Z,1192
2017-08-12T07:47:32.130Z,1192
2017-08-12T07:48:32.041Z,1072
2017-08-12T07:49:31.711Z,1296
2017-08-12T07:50:31.392Z,1068
2017-08-12T07:51:31.662Z,960
2017-08-12T07:52:31.669Z,1048
2017-08-12T07:53:31.652Z,1000
2017-08-12T07:54:31.711Z,1124
2017-08-12T07:55:31.930Z,1252
2017-08-12T07:56:31.593Z,1032
2017-08-12T07:57:31.872Z,972
2017-08-12T07:58:31.544Z,996
2017-08-12T07:59:31.844Z,960
2017-08-12T08:00:31.592Z,1064
2017-08-12T08:01:31.501Z,1152
2017-08-12T08:02:31.902Z,1308
2017-08-12T08:03:31.793Z,1112
2017-08-12T08:04:31.531Z,1208
2017-08-12T08:05:31.433Z,1200
2017-08-12T08:06:31.462Z,1416
2017-08-12T08:07:31.462Z,1548
2017-08-12T08:08:31.778Z,1572
2017-08-12T08:09:31.674Z,1864
2017-08-12T08:10:31.371Z,1952
2017-08-12T08:11:31.322Z,2084
2017-08-12T08:12:31.323Z,1956
2017-08-12T08:13:31.343Z,1944
2017-08-12T08:14:31.291Z,1996
2017-08-12T08:15:31.593Z,1900
2017-08-12T08:16:31.235Z,1848
2017-08-12T08:17:31.562Z,1892
2017-08-12T08:18:31.212Z,1752
2017-08-12T08:19:31.483Z,1548
2017-08-12T08:20:31.493Z,1544
2017-08-12T08:21:31.491Z,1416
2017-08-12T08:22:31.496Z,1552
2017-08-12T08:23:31.144Z,1492
2017-08-12T08:24:31.522Z,1524
2017-08-12T08:25:31.204Z,1644
2017-08-12T08:26:31.389Z,1880
2017-08-12T08:27:31.418Z,2072
2017-08-12T08:28:31.358Z,2044
2017-08-12T08:29:31.335Z,2344
2017-08-12T08:30:31.310Z,2176
2017-08-12T08:31:31.306Z,1892
2017-08-12T08:32:31.322Z,2280
2017-08-12T08:33:31.271Z,2008
2017-08-12T08:34:31.237Z,2052
2017-08-12T08:35:30.911Z,2132
2017-08-12T08:36:31.322Z,2412
2017-08-12T08:37:31.183Z,2528
2017-08-12T08:38:30.873Z,2744
2017-08-12T08:39:31.166Z,3092
2017-08-12T08:40:30.832Z,3360
2017-08-12T08:41:31.140Z,3852
2017-08-12T08:42:30.784Z,4260
2017-08-12T08:43:31.142Z,4712
2017-08-12T08:44:31.092Z,5192
2017-08-12T08:45:31.092Z,5980
2017-08-12T08:46:31.077Z,5516
2017-08-12T08:47:30.709Z,5000
2017-08-12T08:48:31.143Z,4120
2017-08-12T08:49:30.685Z,4148
2017-08-12T08:50:30.652Z,4168
2017-08-12T08:51:30.643Z,4020
2017-08-12T08:52:30.928Z,4080
2017-08-12T08:53:30.910Z,4428
2017-08-12T08:54:30.606Z,4132
2017-08-12T08:55:30.271Z,3596
2017-08-12T08:56:30.878Z,3780
2017-08-12T08:57:30.562Z,3888
2017-08-12T08:58:30.854Z,4372
2017-08-12T08:59:30.834Z,4420
2017-08-12T09:00:30.822Z,4792
2017-08-12T09:01:30.842Z,5280
2017-08-12T09:02:30.792Z,4892
2017-08-12T09:03:30.752Z,4964
2017-08-12T09:04:30.759Z,4980
2017-08-12T09:05:30.407Z,5912
2017-08-12T09:06:30.401Z,5012
2017-08-12T09:07:30.693Z,4784
2017-08-12T09:08:30.731Z,4492
2017-08-12T09:09:30.652Z,4096
2017-08-12T09:10:30.332Z,4976
2017-08-12T09:11:30.593Z,4696
2017-08-12T09:12:30.394Z,4316
2017-08-12T09:13:29.952Z,3596
2017-08-12T09:14:30.575Z,2692
2017-08-12T09:15:30.231Z,2584
2017-08-12T09:16:30.530Z,2492
2017-08-12T09:17:30.211Z,2316
2017-08-12T09:18:30.201Z,2360
2017-08-12T09:19:30.170Z,2396
2017-08-12T09:20:30.479Z,2344
2017-08-12T09:21:30.158Z,2248
2017-08-12T09:22:30.455Z,2764
2017-08-12T09:23:30.419Z,2704
2017-08-12T09:24:30.090Z,2260
2017-08-12T09:25:29.864Z,2772
2017-08-12T09:26:30.049Z,3244
2017-08-12T09:27:30.051Z,3436
2017-08-12T09:28:30.320Z,3776
2017-08-12T09:29:30.314Z,3808
2017-08-12T09:30:30.360Z,4284
2017-08-12T09:31:30.293Z,4380
2017-08-12T09:32:30.272Z,4800
2017-08-12T09:33:30.258Z,3808
2017-08-12T09:34:30.226Z,3112
2017-08-12T09:35:29.609Z,2788
2017-08-12T09:36:30.230Z,2556
2017-08-12T09:37:30.226Z,2368
2017-08-12T09:38:29.871Z,2440
2017-08-12T09:39:30.153Z,2592
2017-08-12T09:40:30.140Z,2436
2017-08-12T09:41:30.111Z,2640
2017-08-12T09:42:30.091Z,2888
2017-08-12T09:43:30.081Z,3008
2017-08-12T09:44:30.103Z,2576
2017-08-12T09:45:29.743Z,2568
2017-08-12T09:46:29.731Z,2536
2017-08-12T09:47:30.011Z,2296
2017-08-12T09:48:30.024Z,2472
2017-08-12T09:49:29.976Z,2136
2017-08-12T09:50:29.970Z,1896
2017-08-12T09:51:29.942Z,1864
2017-08-12T09:52:29.638Z,2084
2017-08-12T09:53:29.920Z,2256
2017-08-12T09:54:29.293Z,2072
2017-08-12T09:55:29.270Z,2004
2017-08-12T09:56:29.552Z,2364
2017-08-12T09:57:29.551Z,2216
2017-08-12T09:58:29.539Z,2372
2017-08-12T09:59:29.528Z,2180
2017-08-12T10:00:29.793Z,2112
2017-08-12T10:01:29.190Z,2632
2017-08-12T10:02:29.791Z,2124
2017-08-12T10:03:29.754Z,1880
2017-08-12T10:04:29.426Z,1664
2017-08-12T10:05:29.488Z,1808
2017-08-12T10:06:29.393Z,1616
2017-08-12T10:07:29.370Z,1936
2017-08-12T10:08:29.080Z,1748
2017-08-12T10:09:29.347Z,1988
2017-08-12T10:10:29.330Z,2388
2017-08-12T10:11:29.630Z,2384
2017-08-12T10:12:29.600Z,2108
2017-08-12T10:13:29.591Z,1880
2017-08-12T10:14:28.960Z,2264
2017-08-12T10:15:29.230Z,2400
2017-08-12T10:16:28.927Z,2552
2017-08-12T10:17:29.534Z,2876
2017-08-12T10:18:29.496Z,2584
2017-08-12T10:19:29.521Z,2964
2017-08-12T10:20:29.498Z,2688
2017-08-12T10:21:29.448Z,2640
2017-08-12T10:22:29.440Z,3200
2017-08-12T10:23:29.450Z,3496
2017-08-12T10:24:29.403Z,2968
2017-08-12T10:25:29.068Z,2644
2017-08-12T10:26:29.378Z,2644
2017-08-12T10:27:29.029Z,2352
2017-08-12T10:28:29.142Z,2456
2017-08-12T10:29:29.024Z,2468
2017-08-12T10:30:29.280Z,2532
2017-08-12T10:31:28.972Z,2604
2017-08-12T10:32:29.279Z,2768
2017-08-12T10:33:29.270Z,2596
2017-08-12T10:34:29.229Z,2700
2017-08-12T10:35:29.211Z,2832
2017-08-12T10:36:29.210Z,2680
2017-08-12T10:37:29.180Z,3356
2017-08-12T10:38:29.171Z,3104
2017-08-12T10:39:29.140Z,2360
2017-08-12T10:40:28.822Z,2400
2017-08-12T10:41:29.140Z,2428
2017-08-12T10:42:28.800Z,2576
2017-08-12T10:43:28.782Z,2576
2017-08-12T10:44:28.772Z,2328
2017-08-12T10:45:29.059Z,1928
2017-08-12T10:46:28.734Z,1808
2017-08-12T10:47:29.030Z,1916
2017-08-12T10:48:28.991Z,1800
2017-08-12T10:49:28.700Z,1816
2017-08-12T10:50:28.976Z,1896
2017-08-12T10:51:28.952Z,1720
2017-08-12T10:52:28.640Z,1928
2017-08-12T10:53:28.928Z,1644
2017-08-12T10:54:29.003Z,1736
2017-08-12T10:55:28.880Z,1660
2017-08-12T10:56:28.893Z,1652
2017-08-12T10:57:28.888Z,2088
2017-08-12T10:58:28.538Z,2048
2017-08-12T10:59:28.835Z,1812
2017-08-12T11:00:28.943Z,2116
2017-08-12T11:01:28.494Z,2080
2017-08-12T11:02:28.814Z,2320
2017-08-12T11:03:28.817Z,2804
2017-08-12T11:04:28.439Z,2824
2017-08-12T11:05:28.717Z,2096
2017-08-12T11:06:28.872Z,2204
2017-08-12T11:07:28.803Z,2432
2017-08-12T11:08:28.701Z,2116
2017-08-12T11:09:28.656Z,1776
2017-08-12T11:10:28.653Z,2024
2017-08-12T11:11:28.332Z,1836
2017-08-12T11:12:28.643Z,2208
2017-08-12T11:13:28.304Z,1816
2017-08-12T11:14:28.603Z,2132
2017-08-12T11:15:28.281Z,1812
2017-08-12T11:16:28.589Z,1860
2017-08-12T11:17:28.218Z,2012
2017-08-12T11:18:28.234Z,1900
2017-08-12T11:19:28.563Z,1972
2017-08-12T11:20:28.492Z,2008
2017-08-12T11:21:28.450Z,1680
2017-08-12T11:22:28.451Z,1744
2017-08-12T11:23:28.481Z,1748
2017-08-12T11:24:28.205Z,1716
2017-08-12T11:25:28.470Z,1700
2017-08-12T11:26:28.420Z,1528
2017-08-12T11:27:28.362Z,1764
2017-08-12T11:28:28.354Z,1624
2017-08-12T11:29:28.019Z,1860
2017-08-12T11:30:28.340Z,1936
2017-08-12T11:31:28.300Z,1920
2017-08-12T11:32:27.966Z,1964
2017-08-12T11:33:28.314Z,2088
2017-08-12T11:34:27.926Z,1952
2017-08-12T11:35:27.921Z,2104
2017-08-12T11:36:28.213Z,2108
2017-08-12T11:37:27.878Z,1864
2017-08-12T11:38:27.564Z,2064
2017-08-12T11:39:28.270Z,2604
2017-08-12T11:40:27.533Z,2968
2017-08-12T11:41:28.160Z,3148
2017-08-12T11:42:28.212Z,2980
2017-08-12T11:43:27.781Z,3264
2017-08-12T11:44:27.834Z,3380
2017-08-12T11:45:27.457Z,2852
2017-08-12T11:46:27.791Z,3332
2017-08-12T11:47:28.020Z,2752
2017-08-12T11:48:28.012Z,3224
2017-08-12T11:49:27.388Z,3388
2017-08-12T11:50:27.396Z,3556
2017-08-12T11:51:27.662Z,3236
2017-08-12T11:52:27.993Z,2764
2017-08-12T11:53:27.604Z,2656
2017-08-12T11:54:27.912Z,2452
2017-08-12T11:55:27.612Z,2684
2017-08-12T11:56:27.870Z,3204
2017-08-12T11:57:27.579Z,3240
2017-08-12T11:58:27.960Z,2580
2017-08-12T11:59:27.878Z,2604
2017-08-12T12:00:27.822Z,2300
2017-08-12T12:01:27.811Z,2524
2017-08-12T12:02:27.849Z,2412
2017-08-12T12:03:27.817Z,2056
2017-08-12T12:04:27.754Z,2244
2017-08-12T12:05:27.110Z,2204
2017-08-12T12:06:27.730Z,1952
2017-08-12T12:07:27.072Z,1588
2017-08-12T12:08:27.682Z,1644
2017-08-12T12:09:27.391Z,1624
2017-08-12T12:10:27.703Z,1608
2017-08-12T12:11:27.645Z,1812
2017-08-12T12:12:27.621Z,2032
2017-08-12T12:13:27.292Z,2160
2017-08-12T12:14:27.580Z,2296
2017-08-12T12:15:27.590Z,2248
2017-08-12T12:16:27.242Z,2636
2017-08-12T12:17:27.543Z,1968
2017-08-12T12:18:27.519Z,1700
2017-08-12T12:19:27.500Z,1724
2017-08-12T12:20:27.205Z,1872
2017-08-12T12:21:27.470Z,1836
2017-08-12T12:22:27.155Z,1892
2017-08-12T12:23:27.142Z,2192
2017-08-12T12:24:27.421Z,2452
2017-08-12T12:25:27.121Z,2312
2017-08-12T12:26:27.391Z,2020
2017-08-12T12:27:27.394Z,1912
2017-08-12T12:28:27.379Z,1708
2017-08-12T12:29:27.029Z,1616
2017-08-12T12:30:27.338Z,1648
2017-08-12T12:31:27.003Z,1672
2017-08-12T12:32:26.978Z,1484
2017-08-12T12:33:27.292Z,1460
2017-08-12T12:34:26.952Z,1408
2017-08-12T12:35:27.249Z,1736
2017-08-12T12:36:26.948Z,1780
2017-08-12T12:37:27.211Z,1844
2017-08-12T12:38:27.211Z,1920
2017-08-12T12:39:27.192Z,2008
2017-08-12T12:40:26.900Z,1872
2017-08-12T12:41:26.955Z,1944
2017-08-12T12:42:26.829Z,2104
2017-08-12T12:43:27.109Z,2216
2017-08-12T12:44:27.113Z,2064
2017-08-12T12:45:27.091Z,2300
2017-08-12T12:46:26.789Z,2428
2017-08-12T12:47:27.060Z,1860
2017-08-12T12:48:26.739Z,2140
2017-08-12T12:49:27.049Z,1972
2017-08-12T12:50:27.031Z,1960
2017-08-12T12:51:26.448Z,1860
2017-08-12T12:52:26.678Z,1720
2017-08-12T12:53:26.654Z,1760
2017-08-12T12:54:26.644Z,1512
2017-08-12T12:55:26.638Z,1632
2017-08-12T12:56:26.632Z,1768
2017-08-12T12:57:26.605Z,1692
2017-08-12T12:58:26.889Z,1688
2017-08-12T12:59:26.869Z,1540
2017-08-12T13:00:26.849Z,1628
2017-08-12T13:01:26.552Z,1604
2017-08-12T13:02:26.840Z,1580
2017-08-12T13:03:26.511Z,1616
2017-08-12T13:04:26.472Z,1480
2017-08-12T13:05:26.770Z,1448
2017-08-12T13:06:26.751Z,1472
2017-08-12T13:07:26.739Z,1612
2017-08-12T13:08:26.723Z,1576
2017-08-12T13:09:26.726Z,1616
2017-08-12T13:10:26.711Z,1672
2017-08-12T13:11:26.689Z,1604
2017-08-12T13:12:26.661Z,1724
2017-08-12T13:13:26.662Z,1696
2017-08-12T13:14:26.629Z,1548
2017-08-12T13:15:26.641Z,1400
2017-08-12T13:16:26.632Z,1368
2017-08-12T13:17:26.582Z,1316
2017-08-12T13:18:26.576Z,1380
2017-08-12T13:19:26.601Z,1368
2017-08-12T13:20:26.553Z,1356
2017-08-12T13:21:26.533Z,1452
2017-08-12T13:22:26.582Z,1424
2017-08-12T13:23:26.482Z,1428
2017-08-12T13:24:26.187Z,1436
2017-08-12T13:25:26.471Z,1528
2017-08-12T13:26:26.420Z,1552
2017-08-12T13:27:26.415Z,1568
2017-08-12T13:28:26.111Z,1592
2017-08-12T13:29:26.462Z,1624
2017-08-12T13:30:26.393Z,1668
2017-08-12T13:31:26.371Z,1764
2017-08-12T13:32:26.413Z,1544
2017-08-12T13:33:26.432Z,1368
2017-08-12T13:34:26.009Z,1204
2017-08-12T13:35:26.437Z,1220
2017-08-12T13:36:25.709Z,1424
2017-08-12T13:37:26.362Z,1800
2017-08-12T13:38:26.253Z,1776
2017-08-12T13:39:26.249Z,1772
2017-08-12T13:40:26.054Z,1776
2017-08-12T13:41:25.974Z,1844
2017-08-12T13:42:25.924Z,1796
2017-08-12T13:43:25.873Z,1816
2017-08-12T13:44:25.927Z,2128
2017-08-12T13:45:25.524Z,2112
2017-08-12T13:46:26.129Z,2124
2017-08-12T13:47:26.102Z,1976
2017-08-12T13:48:26.092Z,2444
2017-08-12T13:49:25.763Z,2544
2017-08-12T13:50:26.080Z,2480